Time;durP1;ratioP1;P1;durP2;ratioP2;P2;SDS_P1;SDS_P2;PMS_P1;PMS_P2;Temp;Humidity;BMP_temperature;BMP_pressure;BME280_temperature;BME280_humidity;BME280_pressure;Samples;Min_cycle;Max_cycle;Signal;HPM_P1;HPM_P2
2023/08/11 04:01:55;;;;;;;1.87;1.87;;;15.40;99.90;;;;;;5222303;23;20647;-70
2023/08/11 04:04:22;;;;;;;0.93;0.93;;;15.40;99.90;;;;;;4922655;29;20462;-71
2023/08/11 04:06:50;;;;;;;5.37;1.83;;;15.40;99.90;;;;;;4924920;29;21015;-71
2023/08/11 04:09:16;;;;;;;1.00;1.00;;;15.40;99.90;;;;;;4923025;29;20462;-71
2023/08/11 04:11:43;;;;;;;4.23;1.00;;;15.40;99.90;;;;;;4920931;29;20565;-71
2023/08/11 04:14:10;;;;;;;1.70;1.37;;;15.40;99.90;;;;;;4911727;29;20843;-72
2023/08/11 04:16:36;;;;;;;1.77;1.67;;;15.40;99.90;;;;;;4912558;29;20474;-70
2023/08/11 04:19:05;;;;;;;2.20;1.00;;;15.40;99.90;;;;;;4912790;29;20494;-71
2023/08/11 04:21:31;;;;;;;1.63;1.57;;;15.40;99.90;;;;;;4910110;29;20868;-71
2023/08/11 04:23:58;;;;;;;2.20;1.33;;;15.40;99.90;;;;;;4906202;29;20479;-71
2023/08/11 04:26:25;;;;;;;0.90;0.90;;;15.50;99.90;;;;;;4912026;29;20487;-71
2023/08/11 04:28:52;;;;;;;0.87;0.87;;;15.50;99.90;;;;;;4910478;29;20552;-71
2023/08/11 04:31:19;;;;;;;1.50;1.50;;;15.50;99.90;;;;;;4910524;29;20490;-70
2023/08/11 04:33:46;;;;;;;1.33;1.33;;;15.50;99.90;;;;;;4913149;29;20566;-71
2023/08/11 04:36:14;;;;;;;2.10;1.60;;;15.50;99.90;;;;;;4912856;29;20470;-69
2023/08/11 04:38:40;;;;;;;1.23;1.23;;;15.50;99.90;;;;;;4909449;29;20546;-70
2023/08/11 04:41:07;;;;;;;1.30;1.30;;;15.60;99.90;;;;;;4912138;29;20509;-70
2023/08/11 04:43:34;;;;;;;1.00;1.00;;;15.60;99.90;;;;;;4914070;29;20470;-70
2023/08/11 04:46:03;;;;;;;1.80;1.80;;;15.60;99.90;;;;;;4913460;29;20470;-70
2023/08/11 04:48:30;;;;;;;1.20;1.20;;;15.60;99.90;;;;;;4908339;29;20533;-70
2023/08/11 04:50:58;;;;;;;1.67;1.30;;;15.60;99.90;;;;;;4911959;29;20521;-70
2023/08/11 04:53:27;;;;;;;2.83;1.80;;;15.70;99.90;;;;;;4908024;29;20475;-71
2023/08/11 04:55:53;;;;;;;2.53;1.27;;;15.70;99.90;;;;;;4909981;29;20467;-70
2023/08/11 04:58:20;;;;;;;1.60;1.13;;;15.70;99.90;;;;;;4909665;29;20478;-70
2023/08/11 05:00:47;;;;;;;2.10;2.10;;;15.70;99.90;;;;;;4910994;29;20583;-69
2023/08/11 05:03:13;;;;;;;1.30;1.30;;;15.80;99.90;;;;;;4905351;29;20855;-70
2023/08/11 05:05:41;;;;;;;1.30;1.30;;;15.80;99.90;;;;;;4904677;29;20565;-70
2023/08/11 05:08:08;;;;;;;1.10;1.10;;;15.80;99.90;;;;;;4907457;29;20482;-70
2023/08/11 05:10:36;;;;;;;1.87;1.70;;;15.80;99.90;;;;;;4912359;29;20490;-70
2023/08/11 05:13:02;;;;;;;1.63;1.63;;;15.80;99.90;;;;;;4912344;29;20481;-70
2023/08/11 05:15:29;;;;;;;1.60;1.50;;;15.90;99.90;;;;;;4909141;29;21250;-71
2023/08/11 05:17:56;;;;;;;6.77;1.37;;;15.90;99.90;;;;;;4910899;29;20473;-71
2023/08/11 05:20:23;;;;;;;1.63;1.63;;;15.90;99.90;;;;;;4912458;29;20502;-70
2023/08/11 05:22:52;;;;;;;2.00;1.03;;;16.00;99.90;;;;;;4912652;29;20501;-69
2023/08/11 05:25:18;;;;;;;1.23;1.23;;;16.00;99.90;;;;;;4912385;29;20569;-70
2023/08/11 05:27:47;;;;;;;1.20;1.20;;;16.00;99.90;;;;;;4910929;29;20649;-70
2023/08/11 05:30:14;;;;;;;6.37;1.37;;;16.00;99.90;;;;;;4910250;29;20949;-70
2023/08/11 05:32:41;;;;;;;1.50;1.50;;;16.10;99.90;;;;;;4903886;29;20522;-71
2023/08/11 05:35:09;;;;;;;1.90;1.37;;;16.10;99.90;;;;;;4909212;29;20470;-70
2023/08/11 05:37:37;;;;;;;2.37;2.33;;;16.20;99.90;;;;;;4911083;29;20489;-71
2023/08/11 05:40:06;;;;;;;1.20;1.20;;;16.20;99.90;;;;;;4910870;29;20577;-71
2023/08/11 05:42:33;;;;;;;1.43;1.40;;;16.30;99.90;;;;;;4911948;29;20494;-71
2023/08/11 05:45:01;;;;;;;1.03;1.03;;;16.30;99.90;;;;;;4909465;29;20501;-71
2023/08/11 05:47:27;;;;;;;3.00;1.70;;;16.40;99.90;;;;;;4911560;29;20481;-71
2023/08/11 05:49:54;;;;;;;2.03;1.93;;;16.40;99.90;;;;;;4910359;29;20463;-71
2023/08/11 05:52:21;;;;;;;2.13;2.13;;;16.50;99.90;;;;;;4912683;29;21194;-71
2023/08/11 05:54:47;;;;;;;1.50;1.50;;;16.50;99.90;;;;;;4909781;29;20915;-70
2023/08/11 05:57:14;;;;;;;1.80;1.60;;;16.50;99.90;;;;;;4910376;29;20537;-70
2023/08/11 05:59:41;;;;;;;1.13;1.13;;;16.50;99.90;;;;;;4911244;29;20494;-70
2023/08/11 06:02:09;;;;;;;1.40;1.40;;;16.60;99.90;;;;;;4905810;29;20509;-71
2023/08/11 06:04:36;;;;;;;1.07;1.07;;;16.60;99.90;;;;;;4908140;29;20582;-70
2023/08/11 06:07:03;;;;;;;2.10;1.30;;;16.70;99.90;;;;;;4909783;29;20470;-70
2023/08/11 06:09:30;;;;;;;1.73;1.73;;;16.70;99.90;;;;;;4907854;29;20481;-70
2023/08/11 06:11:57;;;;;;;1.30;1.30;;;16.70;99.90;;;;;;4912266;29;20470;-71
2023/08/11 06:14:24;;;;;;;1.80;1.77;;;16.80;99.90;;;;;;4911977;29;21095;-71
2023/08/11 06:16:51;;;;;;;1.80;1.80;;;16.80;99.90;;;;;;4910540;29;20847;-70
2023/08/11 06:19:19;;;;;;;1.67;1.67;;;16.80;99.90;;;;;;4911208;29;20494;-70
2023/08/11 06:21:46;;;;;;;2.07;1.97;;;16.90;99.90;;;;;;4911779;29;20491;-70
2023/08/11 06:24:13;;;;;;;1.63;1.53;;;16.90;99.90;;;;;;4912335;29;20458;-70
2023/08/11 06:26:39;;;;;;;1.97;1.87;;;17.00;99.90;;;;;;4910628;29;20484;-70
2023/08/11 06:29:06;;;;;;;2.23;1.67;;;17.10;99.90;;;;;;4906271;29;20475;-71
2023/08/11 06:31:33;;;;;;;1.53;1.30;;;17.20;99.90;;;;;;4911063;29;20498;-71
2023/08/11 06:33:59;;;;;;;1.33;1.33;;;17.30;99.90;;;;;;4911525;29;20474;-70
2023/08/11 06:36:28;;;;;;;1.60;1.57;;;17.30;99.90;;;;;;4912105;29;20458;-70
2023/08/11 06:38:54;;;;;;;1.20;1.20;;;17.30;99.90;;;;;;4907755;29;20475;-71
2023/08/11 06:41:21;;;;;;;2.30;2.10;;;17.40;99.90;;;;;;4908219;29;20483;-71
2023/08/11 06:43:48;;;;;;;1.60;1.50;;;17.50;99.90;;;;;;4912161;29;20478;-71
2023/08/11 06:46:15;;;;;;;1.17;1.17;;;17.60;99.90;;;;;;4911391;29;20566;-70
2023/08/11 06:48:41;;;;;;;1.10;1.10;;;17.60;99.90;;;;;;4916452;29;20470;-69
2023/08/11 06:51:10;;;;;;;1.50;1.50;;;17.70;99.90;;;;;;4913950;29;20548;-70
2023/08/11 06:53:47;;;;;;;1.73;1.73;;;17.80;99.90;;;;;;4913261;29;20959;-70
2023/08/11 06:56:15;;;;;;;2.27;2.20;;;17.90;99.90;;;;;;4914512;29;20601;-70
2023/08/11 06:58:41;;;;;;;2.33;1.67;;;18.00;99.90;;;;;;4916135;29;20469;-71
2023/08/11 07:01:08;;;;;;;2.03;1.53;;;18.00;99.90;;;;;;4913627;29;20597;-71
2023/08/11 07:03:35;;;;;;;1.50;1.50;;;18.10;99.90;;;;;;4915485;29;20464;-70
2023/08/11 07:06:02;;;;;;;1.73;1.43;;;18.20;99.90;;;;;;4913726;29;20507;-72
2023/08/11 07:08:29;;;;;;;5.03;1.20;;;18.30;99.90;;;;;;4912002;29;20477;-70
2023/08/11 07:10:57;;;;;;;1.33;1.20;;;18.40;99.90;;;;;;4908676;29;20497;-72
2023/08/11 07:13:24;;;;;;;1.30;1.30;;;18.50;99.90;;;;;;4912535;29;20476;-70
2023/08/11 07:15:51;;;;;;;2.40;1.67;;;18.60;99.90;;;;;;4915167;29;20532;-71
2023/08/11 07:18:17;;;;;;;1.60;1.50;;;18.70;99.90;;;;;;4915928;29;20982;-71
2023/08/11 07:20:45;;;;;;;1.30;1.30;;;18.70;99.90;;;;;;4913000;29;20851;-71
2023/08/11 07:23:11;;;;;;;4.70;1.80;;;18.80;99.90;;;;;;4907875;29;20773;-70
2023/08/11 07:25:38;;;;;;;1.40;1.40;;;18.80;99.90;;;;;;4913211;29;20505;-70
2023/08/11 07:28:07;;;;;;;10.83;2.20;;;18.90;99.90;;;;;;4912289;29;20489;-72
2023/08/11 07:30:33;;;;;;;1.53;1.53;;;18.90;99.90;;;;;;4914138;29;20553;-71
2023/08/11 07:33:01;;;;;;;1.10;1.10;;;19.10;99.90;;;;;;4912778;29;20484;-71
2023/08/11 07:35:28;;;;;;;1.90;1.80;;;19.10;99.90;;;;;;4902479;29;20489;-70
2023/08/11 07:37:54;;;;;;;2.33;2.13;;;19.20;99.90;;;;;;4914539;29;20819;-71
2023/08/11 07:40:21;;;;;;;1.27;1.27;;;19.30;99.90;;;;;;4913260;29;20487;-70
2023/08/11 07:42:48;;;;;;;1.37;1.37;;;19.30;99.90;;;;;;4915108;29;20469;-70
2023/08/11 07:45:16;;;;;;;1.40;1.40;;;19.30;99.90;;;;;;4915251;29;20497;-70
2023/08/11 07:47:43;;;;;;;1.20;1.20;;;19.30;99.90;;;;;;4915146;29;20469;-70
2023/08/11 07:50:10;;;;;;;1.37;1.37;;;19.30;99.90;;;;;;4913032;29;20464;-70
2023/08/11 07:52:37;;;;;;;1.70;1.70;;;19.40;99.90;;;;;;4914726;29;20482;-71
2023/08/11 07:55:04;;;;;;;2.03;1.83;;;19.40;99.90;;;;;;4913731;29;20471;-71
2023/08/11 07:57:31;;;;;;;1.77;1.73;;;19.50;99.90;;;;;;4910157;29;20476;-71
2023/08/11 07:59:58;;;;;;;1.80;1.67;;;19.50;99.90;;;;;;4913332;29;20500;-70
2023/08/11 08:02:26;;;;;;;1.67;1.57;;;19.50;99.90;;;;;;4914303;29;20540;-71
2023/08/11 08:04:53;;;;;;;1.90;1.47;;;19.60;99.90;;;;;;4910865;29;20470;-72
2023/08/11 08:07:20;;;;;;;1.80;1.70;;;19.60;99.90;;;;;;4907572;29;21085;-70
2023/08/11 08:09:47;;;;;;;1.33;1.33;;;19.70;99.90;;;;;;4914773;29;20458;-70
2023/08/11 08:12:15;;;;;;;1.30;1.30;;;19.80;99.90;;;;;;4911475;29;20501;-70
2023/08/11 08:14:42;;;;;;;1.40;1.30;;;19.80;99.90;;;;;;4912956;29;20473;-71
2023/08/11 08:17:09;;;;;;;1.77;1.67;;;19.90;99.90;;;;;;4910413;29;20961;-71
2023/08/11 08:19:37;;;;;;;2.00;2.00;;;20.10;99.90;;;;;;4911839;29;20474;-71
2023/08/11 08:22:05;;;;;;;1.70;1.70;;;20.20;99.90;;;;;;4903608;29;20513;-71
2023/08/11 08:24:31;;;;;;;1.83;1.80;;;20.40;99.90;;;;;;4915058;29;20540;-71
2023/08/11 08:26:58;;;;;;;1.57;1.57;;;20.50;99.90;;;;;;4909132;29;20482;-71
2023/08/11 08:29:25;;;;;;;1.70;1.70;;;20.60;99.90;;;;;;4907956;29;20558;-71
2023/08/11 08:31:52;;;;;;;1.47;1.43;;;20.70;99.90;;;;;;4913748;29;21024;-71
2023/08/11 08:34:18;;;;;;;2.23;1.90;;;20.90;99.90;;;;;;4906203;29;20541;-71
2023/08/11 08:36:46;;;;;;;3.63;1.87;;;21.10;99.90;;;;;;4906260;29;20480;-71
2023/08/11 08:39:13;;;;;;;1.53;1.53;;;21.20;99.90;;;;;;4910620;29;20555;-71
2023/08/11 08:41:45;;;;;;;1.80;1.80;;;21.30;99.90;;;;;;4912561;29;20505;-70
2023/08/11 08:44:12;;;;;;;1.67;1.67;;;21.30;99.90;;;;;;4904295;29;20475;-71
2023/08/11 08:46:40;;;;;;;1.60;1.60;;;21.40;99.90;;;;;;4912068;29;20477;-72
2023/08/11 08:49:12;;;;;;;2.07;1.90;;;21.50;99.90;;;;;;4910363;29;20585;-73
2023/08/11 08:51:40;;;;;;;1.50;1.50;;;21.60;99.90;;;;;;4912389;29;20521;-73
2023/08/11 08:54:09;;;;;;;2.10;2.00;;;21.70;99.90;;;;;;4912049;29;20829;-72
2023/08/11 08:56:37;;;;;;;2.10;1.93;;;21.80;99.90;;;;;;4912687;29;20995;-73
2023/08/11 08:59:04;;;;;;;1.40;1.40;;;22.00;99.90;;;;;;4909817;29;20536;-73
2023/08/11 09:01:32;;;;;;;1.60;1.50;;;22.00;99.90;;;;;;4913032;29;20506;-72
2023/08/11 09:03:59;;;;;;;1.30;1.30;;;22.10;99.90;;;;;;4912680;29;20556;-72
2023/08/11 09:06:27;;;;;;;1.70;1.60;;;22.10;99.90;;;;;;4907044;29;20489;-71
2023/08/11 09:08:54;;;;;;;2.00;2.00;;;22.30;99.90;;;;;;4912582;29;20867;-71
2023/08/11 09:11:23;;;;;;;1.27;1.27;;;22.40;99.90;;;;;;4913070;29;20499;-73
2023/08/11 09:13:50;;;;;;;1.60;1.60;;;22.50;99.90;;;;;;4909488;29;20562;-71
2023/08/11 09:16:16;;;;;;;1.70;1.50;;;22.70;99.90;;;;;;4913523;29;20507;-71
2023/08/11 09:18:44;;;;;;;1.33;1.33;;;22.70;99.90;;;;;;4913594;29;20475;-71
2023/08/11 09:21:10;;;;;;;1.60;1.60;;;22.80;99.90;;;;;;4912847;29;21028;-71
2023/08/11 09:23:37;;;;;;;1.50;1.50;;;23.00;99.90;;;;;;4910257;29;20480;-71
2023/08/11 09:26:04;;;;;;;1.50;1.50;;;23.00;99.90;;;;;;4913304;29;20459;-72
2023/08/11 09:28:32;;;;;;;1.40;1.40;;;23.00;99.90;;;;;;4910422;29;21141;-72
2023/08/11 09:30:59;;;;;;;1.80;1.70;;;23.00;99.90;;;;;;4912929;29;20510;-71
2023/08/11 09:33:26;;;;;;;2.10;1.37;;;23.10;99.90;;;;;;4907961;29;20837;-72
2023/08/11 09:35:53;;;;;;;1.70;1.70;;;23.20;99.90;;;;;;4913067;29;20458;-72
2023/08/11 09:38:20;;;;;;;1.30;1.30;;;23.30;99.90;;;;;;4913088;29;20473;-72
2023/08/11 09:40:47;;;;;;;1.43;1.33;;;23.50;99.90;;;;;;4911989;29;20847;-71
2023/08/11 09:43:14;;;;;;;1.10;1.10;;;23.70;99.90;;;;;;4912332;29;20487;-72
2023/08/11 09:45:42;;;;;;;1.23;1.23;;;23.90;99.90;;;;;;4913045;29;20472;-71
2023/08/11 09:48:09;;;;;;;1.10;1.10;;;24.00;99.90;;;;;;4911090;29;20481;-70
2023/08/11 09:50:36;;;;;;;1.10;1.10;;;23.90;99.90;;;;;;4907848;29;20525;-69
2023/08/11 09:53:06;;;;;;;0.90;0.90;;;24.10;99.90;;;;;;4905982;29;20479;-71
2023/08/11 09:55:35;;;;;;;0.97;0.97;;;24.30;99.90;;;;;;4906531;29;20485;-70
2023/08/11 09:58:04;;;;;;;1.20;1.13;;;24.50;99.90;;;;;;4914071;29;20547;-68
2023/08/11 10:00:31;;;;;;;1.30;1.30;;;24.60;99.90;;;;;;4906507;29;21014;-72
2023/08/11 10:03:05;;;;;;;1.20;1.20;;;24.60;99.90;;;;;;4911309;29;20964;-72
2023/08/11 10:05:35;;;;;;;1.30;1.20;;;24.60;99.90;;;;;;4912824;29;20475;-71
2023/08/11 10:08:04;;;;;;;1.00;1.00;;;24.60;99.90;;;;;;4912538;29;21002;-71
2023/08/11 10:10:32;;;;;;;1.20;1.20;;;24.70;99.90;;;;;;4910725;29;20481;-72
2023/08/11 10:13:05;;;;;;;1.10;1.10;;;24.70;99.90;;;;;;4910727;29;20970;-72
2023/08/11 10:15:33;;;;;;;5.30;1.33;;;24.80;99.90;;;;;;4921099;23;20600;-68
2023/08/11 10:18:02;;;;;;;1.43;0.97;;;24.70;99.90;;;;;;4893570;29;20987;-68
2023/08/11 10:20:30;;;;;;;0.80;0.80;;;24.60;99.90;;;;;;4894886;29;20493;-69
2023/08/11 10:22:57;;;;;;;1.37;0.77;;;24.60;99.90;;;;;;4895022;29;20590;-69
2023/08/11 10:25:25;;;;;;;1.00;1.00;;;24.60;99.90;;;;;;4894475;29;21148;-69
2023/08/11 10:27:52;;;;;;;0.73;0.73;;;24.70;99.90;;;;;;4909221;29;20488;-68
2023/08/11 10:30:19;;;;;;;0.73;0.73;;;25.00;99.90;;;;;;4914278;29;20480;-69
2023/08/11 10:32:46;;;;;;;1.07;1.07;;;25.10;99.90;;;;;;4914488;29;20461;-69
2023/08/11 10:35:20;;;;;;;1.17;0.60;;;25.20;99.90;;;;;;4896936;29;20861;-69
2023/08/11 10:37:57;;;;;;;0.63;0.63;;;25.30;99.90;;;;;;4889033;29;20836;-69
2023/08/11 10:40:24;;;;;;;0.60;0.60;;;25.00;99.90;;;;;;4911903;29;20465;-68
2023/08/11 10:42:52;;;;;;;0.57;0.57;;;25.00;99.90;;;;;;4914508;29;20466;-68
2023/08/11 10:45:19;;;;;;;0.70;0.70;;;24.90;99.90;;;;;;4907301;29;20501;-68
2023/08/11 10:47:53;;;;;;;0.80;0.80;;;24.90;99.90;;;;;;4905555;29;20526;-68
2023/08/11 10:50:23;;;;;;;0.77;0.77;;;24.80;99.90;;;;;;4908472;29;20479;-68
2023/08/11 10:53:05;;;;;;;0.63;0.63;;;24.70;99.90;;;;;;4905848;29;20458;-69
2023/08/11 10:55:34;;;;;;;0.57;0.57;;;24.70;99.90;;;;;;4901929;29;20555;-68
2023/08/11 10:58:11;;;;;;;0.60;0.60;;;24.80;99.90;;;;;;4895219;29;20463;-68
2023/08/11 11:00:38;;;;;;;4.83;1.10;;;25.00;99.90;;;;;;4894664;29;20497;-69
2023/08/11 11:03:06;;;;;;;0.40;0.40;;;25.00;99.90;;;;;;4894985;29;20478;-69
2023/08/11 11:05:34;;;;;;;0.40;0.40;;;25.10;99.90;;;;;;4886743;29;20522;-68
2023/08/11 11:08:01;;;;;;;0.60;0.60;;;25.10;99.90;;;;;;4902788;29;20461;-68
2023/08/11 11:10:28;;;;;;;0.90;0.90;;;25.20;99.90;;;;;;4894901;29;20459;-69
2023/08/11 11:12:55;;;;;;;0.60;0.60;;;25.10;99.90;;;;;;4895094;29;20466;-68
2023/08/11 11:15:22;;;;;;;0.60;0.60;;;25.20;99.90;;;;;;4893584;29;20595;-69
2023/08/11 11:17:50;;;;;;;0.40;0.40;;;25.30;99.90;;;;;;4900979;29;20473;-69
2023/08/11 11:20:18;;;;;;;0.50;0.50;;;25.40;99.90;;;;;;4902025;29;20462;-68
2023/08/11 11:22:49;;;;;;;0.97;0.97;;;25.30;99.90;;;;;;4895015;29;20496;-68
2023/08/11 11:25:17;;;;;;;0.80;0.80;;;25.30;99.90;;;;;;4894852;29;20502;-69
2023/08/11 11:27:44;;;;;;;0.70;0.70;;;25.30;99.90;;;;;;4906054;29;20465;-69
2023/08/11 11:30:12;;;;;;;0.50;0.50;;;25.40;99.90;;;;;;4913127;29;20468;-68
2023/08/11 11:32:39;;;;;;;0.73;0.67;;;25.50;99.90;;;;;;4899140;29;20514;-68
2023/08/11 11:35:07;;;;;;;0.93;0.93;;;25.30;99.90;;;;;;4903721;29;20491;-69
2023/08/11 11:37:34;;;;;;;0.67;0.50;;;25.20;99.90;;;;;;4909116;29;20506;-69
2023/08/11 11:40:06;;;;;;;0.90;0.90;;;25.00;99.90;;;;;;4916898;29;20464;-68
2023/08/11 11:42:35;;;;;;;0.80;0.80;;;24.70;99.90;;;;;;4907719;29;21021;-69
2023/08/11 11:45:02;;;;;;;0.80;0.80;;;24.80;99.90;;;;;;4903380;29;20484;-68
2023/08/11 11:47:29;;;;;;;0.87;0.87;;;24.80;99.90;;;;;;4898235;29;20467;-67
2023/08/11 11:49:56;;;;;;;0.73;0.73;;;24.90;99.90;;;;;;4897370;29;20470;-69
2023/08/11 11:52:23;;;;;;;0.80;0.80;;;25.00;99.90;;;;;;4898988;29;20484;-68
2023/08/11 11:54:51;;;;;;;0.67;0.67;;;25.10;99.90;;;;;;4907867;29;20491;-68
2023/08/11 11:57:20;;;;;;;0.80;0.80;;;25.40;99.90;;;;;;4905315;29;20468;-69
2023/08/11 11:59:47;;;;;;;0.73;0.73;;;25.50;99.90;;;;;;4914656;29;20993;-69
2023/08/11 12:02:15;;;;;;;1.00;1.00;;;25.40;99.90;;;;;;4912545;29;20493;-68
2023/08/11 12:04:43;;;;;;;1.00;1.00;;;25.30;99.90;;;;;;4902018;29;20542;-68
2023/08/11 12:07:09;;;;;;;1.17;1.17;;;25.10;99.90;;;;;;4890010;29;20487;-68
2023/08/11 12:09:50;;;;;;;0.80;0.80;;;25.10;99.90;;;;;;4902913;29;20814;-69
2023/08/11 12:12:18;;;;;;;1.13;1.13;;;25.30;99.90;;;;;;4897604;29;20479;-69
2023/08/11 12:14:45;;;;;;;0.90;0.90;;;25.30;99.90;;;;;;4904066;29;20521;-68
2023/08/11 12:17:12;;;;;;;1.03;1.03;;;25.30;99.90;;;;;;4899084;29;20472;-69
2023/08/11 12:19:39;;;;;;;0.93;0.93;;;25.20;99.90;;;;;;4899972;29;20574;-69
2023/08/11 12:22:07;;;;;;;1.50;1.50;;;25.10;99.90;;;;;;4894040;29;20512;-68
2023/08/11 12:24:33;;;;;;;1.20;1.20;;;25.00;99.90;;;;;;4896632;29;20499;-68
2023/08/11 12:27:00;;;;;;;0.93;0.93;;;25.00;99.90;;;;;;4912723;29;21034;-68
2023/08/11 12:29:28;;;;;;;0.90;0.90;;;24.90;99.90;;;;;;4916031;29;20467;-69
2023/08/11 12:31:55;;;;;;;1.20;1.20;;;24.90;99.90;;;;;;4900002;29;20985;-68
2023/08/11 12:34:22;;;;;;;0.90;0.90;;;25.00;99.90;;;;;;4894958;29;20585;-69
2023/08/11 12:36:48;;;;;;;1.13;1.13;;;25.10;99.90;;;;;;4897745;29;20476;-68
2023/08/11 12:39:15;;;;;;;1.07;1.07;;;25.10;99.90;;;;;;4904952;29;20461;-69
2023/08/11 12:41:42;;;;;;;3.07;1.30;;;25.20;99.90;;;;;;4899241;29;20574;-69
2023/08/11 12:44:09;;;;;;;0.97;0.97;;;25.20;99.90;;;;;;4899389;29;20537;-68
2023/08/11 12:46:37;;;;;;;1.13;1.13;;;25.20;99.90;;;;;;4898373;29;20474;-68
2023/08/11 12:49:04;;;;;;;1.20;1.20;;;25.10;99.90;;;;;;4916113;29;20520;-68
2023/08/11 12:51:30;;;;;;;2.10;1.20;;;25.20;99.90;;;;;;4906946;29;20815;-68
2023/08/11 12:53:57;;;;;;;1.43;1.43;;;25.10;99.90;;;;;;4895929;29;20846;-69
2023/08/11 12:56:25;;;;;;;1.10;0.80;;;25.10;99.90;;;;;;4906193;29;20472;-68
2023/08/11 12:58:52;;;;;;;1.20;1.20;;;25.10;99.90;;;;;;4907577;29;20461;-68
2023/08/11 13:01:18;;;;;;;1.27;1.27;;;25.20;99.90;;;;;;4915460;29;20504;-69
2023/08/11 13:03:46;;;;;;;1.37;1.37;;;25.10;99.90;;;;;;4897305;29;20479;-68
2023/08/11 13:06:13;;;;;;;1.00;1.00;;;25.20;99.90;;;;;;4898537;29;20476;-68
2023/08/11 13:08:40;;;;;;;1.40;1.40;;;25.20;99.90;;;;;;4896366;29;20467;-68
2023/08/11 13:11:06;;;;;;;2.87;1.60;;;25.30;99.90;;;;;;4896357;29;20834;-68
2023/08/11 13:13:33;;;;;;;1.50;1.40;;;25.30;99.90;;;;;;4896335;29;20847;-68
2023/08/11 13:16:00;;;;;;;1.20;1.20;;;25.40;99.90;;;;;;4895934;29;20495;-68
2023/08/11 13:18:26;;;;;;;1.47;1.47;;;25.30;99.90;;;;;;4904331;29;20470;-70
2023/08/11 13:20:54;;;;;;;1.63;1.63;;;25.20;99.90;;;;;;4900605;29;20841;-69
2023/08/11 13:23:21;;;;;;;1.37;1.37;;;25.20;99.90;;;;;;4896854;29;20490;-68
2023/08/11 13:25:48;;;;;;;1.30;1.30;;;25.30;99.90;;;;;;4894903;29;21002;-68
2023/08/11 13:28:15;;;;;;;1.20;1.20;;;25.30;99.90;;;;;;4903154;29;20489;-68
2023/08/11 13:30:41;;;;;;;1.23;1.23;;;25.30;99.90;;;;;;4908956;29;20830;-68
2023/08/11 13:33:08;;;;;;;1.20;1.20;;;25.40;99.90;;;;;;4915169;29;20462;-68
2023/08/11 13:35:35;;;;;;;1.10;1.10;;;25.40;99.90;;;;;;4908112;29;20495;-68
2023/08/11 13:38:03;;;;;;;1.70;1.70;;;25.30;99.90;;;;;;4902188;29;20478;-69
2023/08/11 13:40:29;;;;;;;1.53;1.53;;;25.40;99.90;;;;;;4894473;29;20478;-69
2023/08/11 13:42:56;;;;;;;1.50;1.50;;;25.50;99.90;;;;;;4903779;29;20987;-68
2023/08/11 13:45:23;;;;;;;1.90;1.90;;;25.50;99.90;;;;;;4900554;29;20492;-68
2023/08/11 13:47:49;;;;;;;2.63;2.33;;;25.50;99.90;;;;;;4894261;29;20482;-68
2023/08/11 13:50:16;;;;;;;1.20;1.20;;;25.50;99.90;;;;;;4901756;29;20467;-68
2023/08/11 13:52:43;;;;;;;1.07;1.07;;;25.60;99.90;;;;;;4895906;29;20460;-68
2023/08/11 13:55:11;;;;;;;1.30;1.30;;;25.60;99.90;;;;;;4895111;29;20823;-69
2023/08/11 13:57:38;;;;;;;1.47;1.23;;;25.60;99.90;;;;;;4901756;29;20882;-68
2023/08/11 14:00:08;;;;;;;1.10;1.10;;;25.60;99.90;;;;;;4907851;29;20549;-69
2023/08/11 14:02:35;;;;;;;1.33;1.30;;;25.70;99.90;;;;;;4908331;29;20492;-68
2023/08/11 14:05:02;;;;;;;1.80;1.23;;;25.70;99.90;;;;;;4899583;29;20914;-68
2023/08/11 14:07:28;;;;;;;1.30;1.30;;;25.80;99.90;;;;;;4893762;29;20480;-68
2023/08/11 14:09:55;;;;;;;1.30;1.30;;;25.90;99.90;;;;;;4903151;29;20467;-68
2023/08/11 14:12:23;;;;;;;1.10;1.10;;;26.00;99.90;;;;;;4895667;29;20462;-68
2023/08/11 14:14:50;;;;;;;1.40;1.40;;;26.00;99.90;;;;;;4894832;29;20528;-68
2023/08/11 14:17:16;;;;;;;1.37;1.37;;;26.00;99.90;;;;;;4901491;29;20483;-68
2023/08/11 14:19:43;;;;;;;0.83;0.83;;;26.10;99.90;;;;;;4902668;29;20461;-69
2023/08/11 14:22:10;;;;;;;1.40;1.40;;;26.20;99.90;;;;;;4895378;29;20500;-69
2023/08/11 14:24:36;;;;;;;1.50;1.40;;;26.20;99.90;;;;;;4895040;29;20496;-69
2023/08/11 14:27:03;;;;;;;2.93;1.23;;;26.10;99.90;;;;;;4895534;29;20478;-68
2023/08/11 14:29:31;;;;;;;1.30;1.30;;;26.30;99.90;;;;;;4902418;29;20493;-68
2023/08/11 14:31:58;;;;;;;1.37;1.37;;;26.40;99.90;;;;;;4903129;29;20964;-68
2023/08/11 14:34:25;;;;;;;1.30;1.30;;;26.40;99.90;;;;;;4912705;29;20494;-68
2023/08/11 14:36:51;;;;;;;0.90;0.90;;;26.30;99.90;;;;;;4911277;29;20481;-69
2023/08/11 14:39:18;;;;;;;6.37;1.20;;;26.30;99.90;;;;;;4906131;29;20460;-70
2023/08/11 14:41:47;;;;;;;0.97;0.97;;;26.40;99.90;;;;;;4914321;29;20554;-68
2023/08/11 14:44:13;;;;;;;1.20;1.20;;;26.50;99.90;;;;;;4910087;29;20505;-68
2023/08/11 14:46:42;;;;;;;1.60;1.60;;;26.50;99.90;;;;;;4892085;29;20481;-69
2023/08/11 14:49:09;;;;;;;1.47;1.47;;;26.50;99.90;;;;;;4903113;29;20467;-69
2023/08/11 14:51:36;;;;;;;1.30;1.30;;;26.50;99.90;;;;;;4894754;29;20526;-68
2023/08/11 14:54:03;;;;;;;1.23;1.23;;;26.40;99.90;;;;;;4895637;29;20466;-68
2023/08/11 14:56:29;;;;;;;1.70;1.57;;;26.30;99.90;;;;;;4894620;29;20481;-69
2023/08/11 14:58:56;;;;;;;1.33;1.33;;;26.30;99.90;;;;;;4902618;29;20490;-68
2023/08/11 15:01:24;;;;;;;0.83;0.83;;;26.50;99.90;;;;;;4902844;29;20526;-68
2023/08/11 15:03:52;;;;;;;1.13;1.13;;;26.60;99.90;;;;;;4913013;29;20495;-70
2023/08/11 15:06:18;;;;;;;1.10;1.10;;;26.60;99.90;;;;;;4901094;29;20468;-68
2023/08/11 15:08:45;;;;;;;0.93;0.93;;;26.70;99.90;;;;;;4904300;29;20875;-69
2023/08/11 15:11:12;;;;;;;1.27;1.27;;;26.70;99.90;;;;;;4910372;29;20459;-68
2023/08/11 15:13:39;;;;;;;1.40;1.40;;;26.70;99.90;;;;;;4909225;29;20492;-68
2023/08/11 15:16:05;;;;;;;1.30;1.30;;;26.80;99.90;;;;;;4908523;29;20493;-68
2023/08/11 15:18:32;;;;;;;1.57;0.90;;;26.80;99.90;;;;;;4906818;29;20473;-67
2023/08/11 15:21:00;;;;;;;0.80;0.80;;;26.80;99.90;;;;;;4904235;29;20479;-67
2023/08/11 15:23:29;;;;;;;0.83;0.83;;;26.70;99.90;;;;;;4904646;29;20487;-67
2023/08/11 15:25:55;;;;;;;1.10;1.10;;;26.70;99.90;;;;;;4897723;29;20483;-68
2023/08/11 15:28:22;;;;;;;0.90;0.90;;;26.70;99.90;;;;;;4898450;29;20472;-68
2023/08/11 15:30:49;;;;;;;0.80;0.80;;;26.80;99.90;;;;;;4897768;29;20550;-68
2023/08/11 15:33:15;;;;;;;1.00;1.00;;;27.00;99.90;;;;;;4898082;29;20466;-68
2023/08/11 15:35:42;;;;;;;0.93;0.93;;;27.10;99.90;;;;;;4897225;29;20509;-68
2023/08/11 15:38:10;;;;;;;1.10;1.10;;;27.10;99.90;;;;;;4897456;29;20476;-68
2023/08/11 15:40:37;;;;;;;0.70;0.70;;;27.10;99.90;;;;;;4907630;29;20474;-68
2023/08/11 15:43:05;;;;;;;0.80;0.70;;;27.10;99.90;;;;;;4907830;29;20524;-68
2023/08/11 15:45:32;;;;;;;0.50;0.40;;;27.10;99.90;;;;;;4908416;29;21264;-68
2023/08/11 15:47:58;;;;;;;0.73;0.73;;;27.10;99.90;;;;;;4912156;29;20972;-68
2023/08/11 15:50:25;;;;;;;0.73;0.73;;;27.10;99.90;;;;;;4906233;29;20455;-68
2023/08/11 15:52:52;;;;;;;0.77;0.77;;;27.00;99.90;;;;;;4916867;29;20475;-68
2023/08/11 15:55:20;;;;;;;0.90;0.90;;;27.10;99.90;;;;;;4916440;29;20496;-67
2023/08/11 15:57:47;;;;;;;1.00;1.00;;;27.10;99.90;;;;;;4905777;29;20472;-67
2023/08/11 16:00:14;;;;;;;0.80;0.80;;;27.10;99.90;;;;;;4897068;29;20996;-67
2023/08/11 16:02:41;;;;;;;1.37;1.23;;;27.00;99.90;;;;;;4897347;29;21012;-68
2023/08/11 16:05:09;;;;;;;0.90;0.90;;;27.10;99.90;;;;;;4903125;29;20505;-67
2023/08/11 16:07:35;;;;;;;0.60;0.60;;;27.10;99.90;;;;;;4897483;29;20466;-68
2023/08/11 16:10:02;;;;;;;0.70;0.70;;;27.10;99.90;;;;;;4897029;29;20478;-67
2023/08/11 16:12:30;;;;;;;0.80;0.80;;;27.20;99.90;;;;;;4903066;29;20473;-67
2023/08/11 16:14:57;;;;;;;0.60;0.60;;;27.20;99.90;;;;;;4907401;29;20623;-68
2023/08/11 16:17:24;;;;;;;0.77;0.77;;;27.20;99.90;;;;;;4943068;23;20979;-72
2023/08/11 16:19:50;;;;;;;0.60;0.60;;;27.10;99.90;;;;;;4914932;29;20478;-70
2023/08/11 16:22:17;;;;;;;0.90;0.90;;;27.20;99.90;;;;;;4910429;29;20469;-70
2023/08/11 16:24:44;;;;;;;0.57;0.57;;;27.10;99.90;;;;;;4911501;29;20476;-70
2023/08/11 16:27:10;;;;;;;1.43;0.90;;;27.10;99.90;;;;;;4915725;29;20527;-70
2023/08/11 16:29:40;;;;;;;0.60;0.60;;;27.10;99.90;;;;;;4916148;29;20573;-70
2023/08/11 16:32:07;;;;;;;3.70;1.20;;;27.00;99.90;;;;;;4916899;29;20467;-70
2023/08/11 16:34:34;;;;;;;0.60;0.60;;;27.00;99.90;;;;;;4914008;29;20487;-69
2023/08/11 16:37:02;;;;;;;0.73;0.73;;;27.00;99.90;;;;;;4927514;29;20781;-71
2023/08/11 16:39:28;;;;;;;0.87;0.87;;;26.90;99.90;;;;;;4926483;29;20522;-70
2023/08/11 16:41:55;;;;;;;0.50;0.50;;;26.90;99.90;;;;;;4916782;29;20548;-70
2023/08/11 16:44:22;;;;;;;0.70;0.70;;;26.90;99.90;;;;;;4917183;29;20896;-72
2023/08/11 16:46:51;;;;;;;0.80;0.80;;;26.90;99.90;;;;;;4916205;29;20474;-72
2023/08/11 16:49:18;;;;;;;0.77;0.77;;;26.90;99.90;;;;;;4913390;29;20479;-72